Portada
METAR-TAF:

METAR-TAF

Aeroports :

Zahedan, Iran

latitud: 29-28N, longitud: 060-53E, altitud: 1370 m

Observació

L'informe es va fer fa 11 minuts, a les 10:30 UTC
Vent 8 kt del Nord/Nord-Est
Temperatura 16°C
Humitat 10%
Pressió 1019 hPa
Visibilitat 10 km o més
sense núvols per sota de 1500 mi sense presència de cumulonimbus.

METAR: OIZH 251030Z 02008KT CAVOK 16/M15 Q1019 A3010

Hora: 14:11 (10:41 UTC)

Pronòstic

L'informe es va fer fa 5 hores i 11 minuts, a les 05:30 UTC
Pronòstic vàlid del 25 a les 06 UTC al 26 a les 12 UTC
Vent 6 kt del Est/Nord-Est
Visibilitat: 7000 m
Temporalment
l' 25 a les 06 UTC al 25 a les 14 UTC
Vent 16 kt del Nord/Nord-Est
Temporalment
l' 26 a les 10 UTC al 26 a les 12 UTC
Vent 14 kt del Nord/Nord-Est

TAF: OIZH 250530Z 2506/2612 06006KT 7000 NSC TEMPO 2506/2514 03016KT TEMPO 2610/2612 03014KT

Observacions i pronòstics meteorològics de més de 4000 aeroports (METAR i TAF).

Les estacions disponibles són els punts grocs i vermells al mapa.

Posi el ratolí al punt desitjat per veure el nom de l'estació.

Feu clic per veure les observacions i els pronòstics meteorològics.

Per canviar el mapa: feu clic els botons verds amb una creu de color negre per apropar; al botó verd amb un guió per allunyar la imatge; o en les fletxes verdes per a mapes adjacents.


METAR-TAF: